Time;durP1;ratioP1;P1;durP2;ratioP2;P2;SDS_P1;SDS_P2;PMS_P1;PMS_P2;Temp;Humidity;BMP_temperature;BMP_pressure;BME280_temperature;BME280_humidity;BME280_pressure;Samples;Min_cycle;Max_cycle;Signal;HPM_P1;HPM_P2
2024/01/03 00:02:02;;;;;;;12.63;6.87;;;;;;;;;;4939671;29;20271;-84
2024/01/03 00:04:44;;;;;;;8.70;5.97;;;;;;;;;;4929478;29;20230;-85
2024/01/03 00:10:02;;;;;;;12.43;6.57;;;;;;;;;;4983830;23;20602;-86
2024/01/03 00:12:34;;;;;;;13.03;6.93;;;;;;;;;;4980653;28;20236;-85
2024/01/03 00:15:08;;;;;;;11.67;8.17;;;;;;;;;;4977472;28;20229;-85
2024/01/03 00:17:38;;;;;;;10.77;7.27;;;;;;;;;;4974512;28;20293;-85
2024/01/03 00:20:12;;;;;;;13.00;7.27;;;;;;;;;;4972009;28;20249;-85
2024/01/03 00:22:44;;;;;;;13.30;6.60;;;;;;;;;;4975154;28;20233;-84
2024/01/03 00:25:15;;;;;;;12.43;7.33;;;;;;;;;;4973780;28;20236;-85
2024/01/03 00:27:48;;;;;;;14.87;8.03;;;;;;;;;;4974343;28;20424;-84
2024/01/03 00:30:18;;;;;;;9.57;5.57;;;;;;;;;;4974675;28;20264;-88
2024/01/03 00:32:48;;;;;;;18.87;6.23;;;;;;;;;;4964672;28;20227;-86
2024/01/03 00:35:21;;;;;;;10.10;5.07;;;;;;;;;;4979364;28;20300;-85
2024/01/03 00:37:52;;;;;;;15.30;6.13;;;;;;;;;;5007037;28;20208;-83
2024/01/03 00:40:54;;;;;;;11.73;6.57;;;;;;;;;;5012133;28;20292;-86
2024/01/03 00:43:25;;;;;;;8.97;5.30;;;;;;;;;;4896898;29;20208;-86
2024/01/03 00:45:53;;;;;;;8.53;5.17;;;;;;;;;;4980014;28;20205;-84
2024/01/03 00:48:25;;;;;;;13.53;5.23;;;;;;;;;;5009620;28;20240;-85
2024/01/03 00:50:57;;;;;;;12.07;5.37;;;;;;;;;;5008237;28;20205;-84
2024/01/03 00:53:30;;;;;;;12.33;7.10;;;;;;;;;;4994542;28;20287;-83
2024/01/03 00:56:00;;;;;;;9.73;5.90;;;;;;;;;;4993359;28;20209;-86
2024/01/03 00:58:29;;;;;;;9.23;7.20;;;;;;;;;;4994228;28;20220;-86
2024/01/03 01:00:59;;;;;;;12.20;7.13;;;;;;;;;;4994970;28;20396;-85
2024/01/03 01:03:29;;;;;;;13.27;7.23;;;;;;;;;;4994912;28;20585;-84
2024/01/03 01:05:58;;;;;;;12.60;7.07;;;;;;;;;;4993906;28;20209;-85
2024/01/03 01:08:28;;;;;;;10.83;7.00;;;;;;;;;;4993445;28;20241;-84
2024/01/03 01:11:16;;;;;;;8.93;6.63;;;;;;;;;;4993612;28;20679;-86
2024/01/03 01:13:51;;;;;;;11.33;6.67;;;;;;;;;;4994064;28;20653;-84
2024/01/03 01:16:24;;;;;;;26.10;10.27;;;;;;;;;;4993452;28;20231;-84
2024/01/03 01:18:55;;;;;;;15.37;8.33;;;;;;;;;;4998503;28;20201;-84
2024/01/03 01:21:25;;;;;;;10.90;7.13;;;;;;;;;;4993933;28;20316;-84
2024/01/03 01:24:02;;;;;;;8.53;6.13;;;;;;;;;;4994440;28;20324;-85
2024/01/03 01:26:34;;;;;;;15.87;7.07;;;;;;;;;;4994257;28;20201;-84
2024/01/03 01:29:12;;;;;;;13.30;7.00;;;;;;;;;;4993756;28;20606;-86
2024/01/03 01:31:43;;;;;;;12.40;6.27;;;;;;;;;;4992695;28;20226;-85
2024/01/03 01:34:20;;;;;;;16.93;7.47;;;;;;;;;;4993359;28;20244;-84
2024/01/03 01:36:51;;;;;;;8.97;5.57;;;;;;;;;;4984763;28;20697;-86
2024/01/03 01:39:23;;;;;;;14.53;7.20;;;;;;;;;;4972646;28;20531;-85
2024/01/03 01:41:59;;;;;;;18.03;6.70;;;;;;;;;;4973106;28;20210;-85
2024/01/03 01:44:31;;;;;;;12.67;7.57;;;;;;;;;;4960244;28;20288;-86
2024/01/03 01:47:00;;;;;;;11.13;6.57;;;;;;;;;;4969637;28;20276;-85
2024/01/03 01:49:30;;;;;;;15.97;6.97;;;;;;;;;;4961847;28;20269;-85
2024/01/03 01:52:04;;;;;;;15.57;8.73;;;;;;;;;;4959875;28;20256;-85
2024/01/03 01:54:33;;;;;;;18.20;9.33;;;;;;;;;;4973772;28;20284;-86
2024/01/03 01:57:05;;;;;;;19.50;9.03;;;;;;;;;;4973842;28;20198;-86
2024/01/03 01:59:41;;;;;;;8.47;6.23;;;;;;;;;;4972080;28;20318;-86
2024/01/03 02:02:12;;;;;;;9.17;6.70;;;;;;;;;;4972640;28;20653;-85
2024/01/03 02:04:44;;;;;;;13.70;7.67;;;;;;;;;;4975463;28;20233;-84
2024/01/03 02:07:16;;;;;;;9.77;6.53;;;;;;;;;;4975584;28;20464;-85
2024/01/03 02:09:47;;;;;;;10.10;6.00;;;;;;;;;;4978040;28;20268;-86
2024/01/03 02:12:19;;;;;;;12.03;6.70;;;;;;;;;;4972861;28;20241;-85
2024/01/03 02:14:51;;;;;;;12.93;6.87;;;;;;;;;;4973216;28;20190;-85
2024/01/03 02:17:21;;;;;;;15.30;8.20;;;;;;;;;;4972627;28;20572;-85
2024/01/03 02:19:51;;;;;;;11.33;7.00;;;;;;;;;;4972703;28;20229;-85
2024/01/03 02:22:23;;;;;;;12.87;7.53;;;;;;;;;;4972496;28;20208;-85
2024/01/03 02:24:54;;;;;;;13.77;6.90;;;;;;;;;;4973112;28;20202;-85
2024/01/03 02:27:25;;;;;;;11.83;6.77;;;;;;;;;;4973239;28;20209;-85
2024/01/03 02:29:59;;;;;;;12.80;7.10;;;;;;;;;;4973754;28;20331;-89
2024/01/03 02:32:27;;;;;;;13.17;8.00;;;;;;;;;;4977444;28;20653;-85
2024/01/03 02:35:02;;;;;;;12.10;6.97;;;;;;;;;;4974412;28;20245;-86
2024/01/03 02:37:35;;;;;;;12.50;6.90;;;;;;;;;;4972530;28;20197;-84
2024/01/03 02:40:04;;;;;;;12.63;7.33;;;;;;;;;;4973688;28;20234;-85
2024/01/03 02:42:35;;;;;;;16.63;9.67;;;;;;;;;;4974063;28;20281;-87
2024/01/03 02:45:06;;;;;;;17.50;7.57;;;;;;;;;;4974384;28;20293;-84
2024/01/03 02:47:38;;;;;;;10.07;7.10;;;;;;;;;;4975029;28;20205;-85
2024/01/03 02:50:09;;;;;;;12.33;7.87;;;;;;;;;;4973899;28;20204;-86
2024/01/03 02:52:52;;;;;;;15.70;8.77;;;;;;;;;;4973485;28;20212;-85
2024/01/03 02:55:30;;;;;;;12.13;7.37;;;;;;;;;;4974398;28;20257;-85
2024/01/03 02:58:04;;;;;;;11.30;7.30;;;;;;;;;;4973363;28;20277;-84
2024/01/03 03:00:39;;;;;;;15.53;8.00;;;;;;;;;;4977572;28;20233;-85
2024/01/03 03:03:10;;;;;;;11.63;6.17;;;;;;;;;;4975563;28;20589;-84
2024/01/03 03:05:43;;;;;;;10.43;6.33;;;;;;;;;;4975307;28;20335;-84
2024/01/03 03:08:22;;;;;;;13.07;7.47;;;;;;;;;;4976021;28;20288;-85
2024/01/03 03:11:02;;;;;;;12.37;6.47;;;;;;;;;;4975711;28;20218;-85
2024/01/03 03:13:43;;;;;;;6.70;5.50;;;;;;;;;;4975295;28;20202;-85
2024/01/03 03:16:19;;;;;;;15.87;6.87;;;;;;;;;;4975067;28;20194;-84
2024/01/03 03:18:54;;;;;;;17.47;7.50;;;;;;;;;;4975955;28;20206;-86
2024/01/03 03:21:41;;;;;;;11.83;5.93;;;;;;;;;;4976882;28;20245;-84
2024/01/03 03:24:22;;;;;;;14.30;7.47;;;;;;;;;;4959595;29;20295;-84
2024/01/03 03:26:54;;;;;;;11.20;6.13;;;;;;;;;;4961178;29;20217;-84
2024/01/03 03:29:33;;;;;;;12.83;6.47;;;;;;;;;;4973437;28;20202;-85
2024/01/03 03:32:20;;;;;;;10.63;5.97;;;;;;;;;;4994498;28;20189;-85
2024/01/03 03:34:57;;;;;;;11.43;5.90;;;;;;;;;;4995260;28;20202;-84
2024/01/03 03:37:47;;;;;;;8.90;6.20;;;;;;;;;;4997333;28;20217;-84
2024/01/03 03:40:30;;;;;;;9.00;6.23;;;;;;;;;;4985415;28;20371;-84
2024/01/03 03:43:06;;;;;;;13.87;6.20;;;;;;;;;;4976461;28;20309;-85
2024/01/03 03:45:40;;;;;;;8.77;6.33;;;;;;;;;;4976283;28;20209;-85
2024/01/03 03:48:33;;;;;;;9.83;5.43;;;;;;;;;;4975982;28;20205;-87
2024/01/03 03:51:14;;;;;;;12.30;6.80;;;;;;;;;;4975189;28;20714;-85
2024/01/03 03:53:46;;;;;;;9.77;6.37;;;;;;;;;;4974937;28;20210;-85
2024/01/03 03:56:32;;;;;;;9.13;6.40;;;;;;;;;;4974418;28;20238;-85
2024/01/03 03:59:10;;;;;;;7.53;5.90;;;;;;;;;;4975454;28;20186;-85
2024/01/03 04:01:49;;;;;;;15.77;6.53;;;;;;;;;;4975500;28;20233;-83
2024/01/03 04:04:35;;;;;;;10.57;7.13;;;;;;;;;;4975348;28;20200;-86
2024/01/03 04:07:31;;;;;;;;;;;;;;;;;;;;;
2024/01/03 04:10:14;;;;;;;15.20;6.80;;;;;;;;;;4974839;28;20249;-84
2024/01/03 04:12:57;;;;;;;;;;;;;;;;;;;;;
2024/01/03 04:16:04;;;;;;;16.27;7.67;;;;;;;;;;4975808;28;20213;-84
2024/01/03 04:18:39;;;;;;;13.33;6.70;;;;;;;;;;4976090;28;20197;-82
2024/01/03 04:21:33;;;;;;;9.07;6.23;;;;;;;;;;4979475;28;20233;-87
2024/01/03 04:24:20;;;;;;;;;;;;;;;;;;;;;
2024/01/03 04:26:51;;;;;;;11.13;6.73;;;;;;;;;;4976140;28;20217;-86
2024/01/03 04:29:48;;;;;;;14.60;6.90;;;;;;;;;;4979849;28;20245;-84
2024/01/03 04:38:35;;;;;;;11.10;6.70;;;;;;;;;;4964702;28;20206;-85
2024/01/03 04:41:06;;;;;;;9.93;7.30;;;;;;;;;;4973678;28;20237;-85
2024/01/03 04:43:42;;;;;;;20.80;8.60;;;;;;;;;;4975518;28;20194;-84
2024/01/03 04:46:19;;;;;;;14.80;8.53;;;;;;;;;;4980188;28;20701;-86
2024/01/03 04:48:56;;;;;;;20.13;8.70;;;;;;;;;;4983464;28;20210;-84
2024/01/03 04:51:37;;;;;;;16.63;8.93;;;;;;;;;;4981580;28;20571;-83
2024/01/03 04:54:11;;;;;;;12.60;7.20;;;;;;;;;;4960887;29;20649;-86
2024/01/03 04:56:40;;;;;;;16.70;8.67;;;;;;;;;;4959785;29;20217;-83
2024/01/03 04:59:11;;;;;;;12.83;7.37;;;;;;;;;;4957162;29;20199;-86
2024/01/03 05:01:42;;;;;;;13.10;8.20;;;;;;;;;;4954657;29;20291;-84
2024/01/03 05:04:11;;;;;;;11.93;7.87;;;;;;;;;;4954723;29;20285;-85
2024/01/03 05:06:40;;;;;;;14.63;8.57;;;;;;;;;;4954943;29;20253;-84
2024/01/03 05:09:11;;;;;;;17.67;9.30;;;;;;;;;;4953104;29;20239;-86
2024/01/03 05:11:42;;;;;;;13.97;9.03;;;;;;;;;;4953345;29;20239;-84
2024/01/03 05:14:12;;;;;;;14.30;9.60;;;;;;;;;;4955435;29;20206;-86
2024/01/03 05:16:42;;;;;;;16.70;8.20;;;;;;;;;;4955989;29;20275;-86
2024/01/03 05:19:18;;;;;;;13.83;8.57;;;;;;;;;;4954708;29;20198;-85
2024/01/03 05:21:50;;;;;;;13.37;7.50;;;;;;;;;;4953996;28;20743;-86
2024/01/03 05:24:24;;;;;;;12.63;8.03;;;;;;;;;;4955101;29;20229;-86
2024/01/03 05:26:59;;;;;;;16.93;9.13;;;;;;;;;;4954147;29;20302;-88
2024/01/03 05:29:32;;;;;;;12.63;8.27;;;;;;;;;;4955501;29;20202;-89
2024/01/03 05:32:10;;;;;;;19.73;10.37;;;;;;;;;;4936793;28;20285;-84
2024/01/03 05:34:44;;;;;;;20.80;10.57;;;;;;;;;;4937403;29;20199;-84
2024/01/03 05:37:16;;;;;;;21.47;10.30;;;;;;;;;;4967879;29;20711;-84
2024/01/03 05:39:55;;;;;;;12.67;7.77;;;;;;;;;;4967297;29;20213;-84
2024/01/03 05:42:35;;;;;;;14.83;8.87;;;;;;;;;;4955012;29;20253;-86
2024/01/03 05:45:06;;;;;;;14.33;8.17;;;;;;;;;;4955514;29;20207;-86
2024/01/03 05:47:38;;;;;;;12.93;7.77;;;;;;;;;;4955923;29;20207;-85
2024/01/03 05:50:11;;;;;;;10.30;7.20;;;;;;;;;;4954177;29;20372;-85
2024/01/03 05:52:57;;;;;;;17.50;8.47;;;;;;;;;;4953160;29;20286;-85
2024/01/03 05:55:29;;;;;;;15.30;7.90;;;;;;;;;;4953406;29;20265;-87
2024/01/03 05:58:00;;;;;;;14.83;7.97;;;;;;;;;;4953777;29;20202;-86
2024/01/03 06:00:32;;;;;;;7.90;6.27;;;;;;;;;;4953186;29;20213;-86
2024/01/03 06:03:04;;;;;;;10.30;7.10;;;;;;;;;;4957903;29;20206;-84
2024/01/03 06:05:40;;;;;;;14.60;8.33;;;;;;;;;;4956667;29;20219;-86
2024/01/03 06:08:15;;;;;;;17.83;8.90;;;;;;;;;;4958368;29;20685;-85
2024/01/03 06:10:46;;;;;;;12.63;7.83;;;;;;;;;;4956330;29;20206;-85
2024/01/03 06:13:16;;;;;;;18.30;9.40;;;;;;;;;;4956845;29;20195;-85
2024/01/03 06:15:47;;;;;;;15.13;9.23;;;;;;;;;;4956609;29;20512;-85
2024/01/03 06:18:17;;;;;;;20.20;9.00;;;;;;;;;;4956239;29;20191;-85
2024/01/03 06:20:47;;;;;;;12.97;9.03;;;;;;;;;;4956862;29;20270;-85
2024/01/03 06:23:19;;;;;;;21.17;9.50;;;;;;;;;;4964147;29;20207;-85
2024/01/03 06:29:00;;;;;;;24.57;10.67;;;;;;;;;;5015867;23;20725;-87
2024/01/03 06:31:30;;;;;;;16.57;9.80;;;;;;;;;;4981637;28;20281;-85
2024/01/03 06:34:00;;;;;;;12.80;6.20;;;;;;;;;;4987289;28;20256;-85
2024/01/03 06:36:30;;;;;;;17.43;8.07;;;;;;;;;;4995267;28;20224;-85
2024/01/03 06:39:01;;;;;;;15.00;8.23;;;;;;;;;;4995008;28;20205;-87
2024/01/03 06:41:33;;;;;;;20.73;9.67;;;;;;;;;;4990253;28;20722;-85
2024/01/03 06:44:05;;;;;;;25.30;11.40;;;;;;;;;;4977580;28;20202;-85
2024/01/03 06:46:38;;;;;;;22.27;11.70;;;;;;;;;;4974958;28;20675;-85
2024/01/03 06:49:12;;;;;;;17.23;10.63;;;;;;;;;;4976811;28;20210;-85
2024/01/03 06:51:44;;;;;;;15.30;8.10;;;;;;;;;;4977355;28;20197;-86
2024/01/03 06:54:16;;;;;;;23.17;8.60;;;;;;;;;;4974933;28;20230;-87
2024/01/03 06:56:47;;;;;;;13.70;8.20;;;;;;;;;;4975125;28;20209;-85
2024/01/03 06:59:21;;;;;;;17.73;8.83;;;;;;;;;;4975573;28;20723;-84
2024/01/03 07:01:52;;;;;;;19.33;10.63;;;;;;;;;;4973458;28;20781;-86
2024/01/03 07:04:25;;;;;;;15.70;7.50;;;;;;;;;;4976676;28;20266;-88
2024/01/03 07:06:54;;;;;;;12.30;7.90;;;;;;;;;;4974829;28;20206;-85
2024/01/03 07:09:27;;;;;;;16.13;8.03;;;;;;;;;;4977928;28;20205;-87
2024/01/03 07:11:56;;;;;;;20.57;8.43;;;;;;;;;;4973310;28;20197;-85
2024/01/03 07:14:29;;;;;;;16.10;8.20;;;;;;;;;;4974386;28;20198;-84
2024/01/03 07:16:58;;;;;;;14.83;8.63;;;;;;;;;;4973576;28;20224;-84
2024/01/03 07:19:33;;;;;;;16.53;8.03;;;;;;;;;;4960468;28;20218;-86
2024/01/03 07:22:05;;;;;;;12.57;7.10;;;;;;;;;;4955095;29;20218;-85
2024/01/03 07:24:43;;;;;;;15.90;7.60;;;;;;;;;;4953729;29;20202;-86
2024/01/03 07:27:14;;;;;;;14.07;8.30;;;;;;;;;;4954260;29;20238;-84
2024/01/03 07:29:54;;;;;;;13.23;7.07;;;;;;;;;;4953313;29;20230;-86
2024/01/03 07:32:24;;;;;;;12.37;6.13;;;;;;;;;;4954302;29;20224;-86
2024/01/03 07:37:50;;;;;;;17.23;7.63;;;;;;;;;;4911614;28;20213;-86
2024/01/03 07:40:22;;;;;;;11.13;7.17;;;;;;;;;;4974599;28;20202;-86
2024/01/03 07:42:51;;;;;;;9.97;6.63;;;;;;;;;;4973857;28;20240;-86
2024/01/03 07:45:23;;;;;;;11.57;6.57;;;;;;;;;;4972275;28;20202;-87
2024/01/03 07:47:58;;;;;;;10.73;7.23;;;;;;;;;;4975155;28;20186;-85
2024/01/03 07:50:26;;;;;;;21.57;7.33;;;;;;;;;;4964068;29;20198;-86
2024/01/03 07:52:56;;;;;;;13.00;6.87;;;;;;;;;;4958508;28;20668;-82
2024/01/03 07:55:29;;;;;;;8.50;6.17;;;;;;;;;;4992374;23;20778;-86
2024/01/03 07:58:03;;;;;;;16.07;6.73;;;;;;;;;;4986013;28;20269;-85
2024/01/03 08:00:35;;;;;;;14.27;6.90;;;;;;;;;;4977279;28;20619;-86
2024/01/03 08:03:06;;;;;;;8.83;6.93;;;;;;;;;;4976698;28;20236;-85
2024/01/03 08:05:36;;;;;;;11.00;6.33;;;;;;;;;;4976672;28;20198;-87
2024/01/03 08:08:11;;;;;;;9.23;6.03;;;;;;;;;;4977475;28;20216;-85
2024/01/03 08:10:42;;;;;;;9.27;5.83;;;;;;;;;;4976301;28;20623;-85
2024/01/03 08:13:12;;;;;;;10.03;6.13;;;;;;;;;;4976961;28;20204;-87
2024/01/03 08:15:55;;;;;;;8.23;5.60;;;;;;;;;;4975333;28;20539;-86
2024/01/03 08:18:30;;;;;;;7.30;5.33;;;;;;;;;;4976045;28;20544;-86
2024/01/03 08:21:04;;;;;;;8.07;6.53;;;;;;;;;;4974912;28;20731;-85
2024/01/03 08:23:33;;;;;;;12.70;6.50;;;;;;;;;;4971905;28;20698;-85
2024/01/03 08:26:12;;;;;;;8.87;6.00;;;;;;;;;;4967472;28;20285;-86
2024/01/03 08:28:45;;;;;;;6.97;5.40;;;;;;;;;;4958865;28;20250;-86
2024/01/03 08:34:03;;;;;;;8.90;5.67;;;;;;;;;;4798734;26;20210;-87
2024/01/03 08:36:45;;;;;;;7.50;5.67;;;;;;;;;;4956409;29;20218;-86
2024/01/03 08:39:17;;;;;;;6.93;6.10;;;;;;;;;;4954749;29;20266;-86
2024/01/03 08:41:53;;;;;;;7.37;5.43;;;;;;;;;;4957904;29;20257;-86
2024/01/03 08:44:24;;;;;;;8.90;6.57;;;;;;;;;;4940276;29;20245;-86
2024/01/03 08:46:53;;;;;;;12.53;6.27;;;;;;;;;;4944130;29;20230;-87
2024/01/03 08:49:27;;;;;;;9.77;5.80;;;;;;;;;;4940046;29;20222;-87
2024/01/03 08:52:12;;;;;;;7.00;5.43;;;;;;;;;;4945657;29;20215;-86
2024/01/03 08:57:43;;;;;;;6.80;4.67;;;;;;;;;;4948457;28;20231;-85
2024/01/03 09:00:15;;;;;;;7.70;5.50;;;;;;;;;;4936026;29;20222;-85
2024/01/03 09:02:49;;;;;;;12.17;6.13;;;;;;;;;;4939182;29;20542;-88
2024/01/03 09:05:22;;;;;;;10.70;6.20;;;;;;;;;;4935449;29;20227;-87
2024/01/03 09:07:52;;;;;;;11.77;6.67;;;;;;;;;;4937323;29;20282;-86
2024/01/03 09:10:26;;;;;;;10.70;5.90;;;;;;;;;;4941362;29;20230;-86
2024/01/03 09:13:21;;;;;;;9.33;6.37;;;;;;;;;;4947701;29;20576;-86
2024/01/03 09:16:17;;;;;;;11.40;7.00;;;;;;;;;;4943861;29;20313;-86
2024/01/03 09:18:44;;;;;;;19.67;9.20;;;;;;;;;;4921766;29;20423;-86
2024/01/03 09:21:30;;;;;;;18.77;10.53;;;;;;;;;;4955933;29;20274;-86
2024/01/03 09:24:08;;;;;;;16.90;10.27;;;;;;;;;;4953418;29;20285;-87
2024/01/03 09:26:38;;;;;;;28.83;13.50;;;;;;;;;;4945995;29;20231;-87
2024/01/03 09:29:12;;;;;;;18.70;10.73;;;;;;;;;;4942123;29;20232;-86
2024/01/03 09:31:44;;;;;;;22.17;11.33;;;;;;;;;;4942454;29;20736;-87
2024/01/03 09:34:20;;;;;;;21.67;11.83;;;;;;;;;;4932705;29;20222;-87
2024/01/03 09:36:49;;;;;;;21.53;12.40;;;;;;;;;;4941203;29;20260;-86
2024/01/03 09:39:23;;;;;;;24.40;11.07;;;;;;;;;;4929641;29;20234;-86
2024/01/03 09:41:54;;;;;;;17.53;10.83;;;;;;;;;;4937276;29;20231;-87
2024/01/03 09:44:24;;;;;;;22.03;11.67;;;;;;;;;;4938160;29;20223;-87
2024/01/03 09:46:58;;;;;;;17.80;11.00;;;;;;;;;;4951854;29;20253;-86
2024/01/03 09:49:36;;;;;;;22.63;11.77;;;;;;;;;;4946317;29;20236;-85
2024/01/03 09:52:23;;;;;;;14.77;9.50;;;;;;;;;;4974187;28;20246;-87
2024/01/03 09:54:58;;;;;;;17.43;9.87;;;;;;;;;;4962782;29;20293;-85
2024/01/03 09:57:30;;;;;;;13.73;9.07;;;;;;;;;;4962054;29;20249;-85
2024/01/03 09:59:59;;;;;;;13.07;8.80;;;;;;;;;;4956623;29;20235;-85
2024/01/03 10:02:29;;;;;;;10.30;7.20;;;;;;;;;;4943890;29;20719;-85
2024/01/03 10:05:01;;;;;;;8.97;6.03;;;;;;;;;;4940082;29;20235;-86
2024/01/03 10:07:40;;;;;;;11.33;6.83;;;;;;;;;;4928496;29;20277;-85
2024/01/03 10:10:10;;;;;;;11.27;7.00;;;;;;;;;;4930879;29;20235;-84
2024/01/03 10:12:42;;;;;;;10.00;7.47;;;;;;;;;;4938801;29;20250;-85
2024/01/03 10:15:20;;;;;;;11.23;7.10;;;;;;;;;;4940715;29;20227;-84
2024/01/03 10:17:50;;;;;;;15.10;4.87;;;;;;;;;;4946864;29;20828;-83
2024/01/03 10:20:34;;;;;;;9.27;6.23;;;;;;;;;;4940806;29;20234;-84
2024/01/03 10:23:24;;;;;;;8.67;6.10;;;;;;;;;;4941492;29;20694;-83
2024/01/03 10:25:58;;;;;;;10.23;6.07;;;;;;;;;;4945681;29;20223;-84
2024/01/03 10:28:31;;;;;;;5.40;3.67;;;;;;;;;;4950608;29;20238;-84
2024/01/03 10:31:00;;;;;;;11.83;4.50;;;;;;;;;;4944365;29;20231;-85
2024/01/03 10:33:31;;;;;;;4.30;3.23;;;;;;;;;;4954166;28;20242;-84
2024/01/03 10:36:09;;;;;;;2.30;1.40;;;;;;;;;;4948444;29;20274;-85
2024/01/03 10:38:38;;;;;;;0.97;0.97;;;;;;;;;;4935831;29;20289;-86
2024/01/03 10:41:12;;;;;;;7.87;4.60;;;;;;;;;;4931762;29;20233;-85
2024/01/03 10:43:44;;;;;;;10.50;6.57;;;;;;;;;;4939313;29;20238;-85
2024/01/03 10:46:20;;;;;;;17.40;7.60;;;;;;;;;;4943163;29;20234;-84
2024/01/03 10:48:49;;;;;;;8.70;5.83;;;;;;;;;;4953915;29;20230;-86
2024/01/03 10:51:23;;;;;;;13.43;8.87;;;;;;;;;;4951298;29;20230;-86
2024/01/03 10:53:58;;;;;;;18.73;9.77;;;;;;;;;;4955038;29;20226;-86
2024/01/03 10:56:41;;;;;;;11.90;8.47;;;;;;;;;;4955933;29;20648;-86
2024/01/03 10:59:12;;;;;;;14.03;9.07;;;;;;;;;;4955899;29;20202;-85
2024/01/03 11:01:47;;;;;;;20.77;8.73;;;;;;;;;;4959630;29;20468;-82
2024/01/03 11:04:21;;;;;;;16.27;9.60;;;;;;;;;;4964426;29;20241;-83
2024/01/03 11:06:53;;;;;;;26.10;11.60;;;;;;;;;;4962923;29;20213;-85
2024/01/03 11:09:25;;;;;;;17.60;10.33;;;;;;;;;;4963805;29;20683;-83
2024/01/03 11:12:10;;;;;;;12.67;8.47;;;;;;;;;;4963123;29;20206;-84
2024/01/03 11:14:45;;;;;;;16.10;8.83;;;;;;;;;;4957192;29;20206;-85
2024/01/03 11:17:15;;;;;;;14.90;9.03;;;;;;;;;;4955383;29;20206;-85
2024/01/03 11:19:47;;;;;;;8.93;6.10;;;;;;;;;;4956574;28;20210;-85
2024/01/03 11:22:17;;;;;;;13.30;7.20;;;;;;;;;;4957431;29;20199;-85
2024/01/03 11:24:50;;;;;;;8.57;5.80;;;;;;;;;;4958671;29;20680;-88
2024/01/03 11:27:24;;;;;;;11.40;6.03;;;;;;;;;;4957285;29;20702;-87
2024/01/03 11:29:57;;;;;;;9.93;6.03;;;;;;;;;;4959739;29;20663;-85
2024/01/03 11:32:44;;;;;;;18.43;8.97;;;;;;;;;;4959606;28;20238;-85
2024/01/03 11:35:13;;;;;;;10.17;6.43;;;;;;;;;;4956520;29;20206;-85
2024/01/03 11:37:52;;;;;;;11.73;6.77;;;;;;;;;;4962645;29;20217;-86
2024/01/03 11:40:23;;;;;;;9.00;6.60;;;;;;;;;;4958655;29;20206;-86
2024/01/03 11:43:07;;;;;;;7.07;5.07;;;;;;;;;;4959455;29;20215;-86
2024/01/03 11:45:41;;;;;;;6.83;5.60;;;;;;;;;;4957831;29;20456;-87
2024/01/03 11:48:11;;;;;;;7.20;5.33;;;;;;;;;;4959861;29;20221;-86
2024/01/03 11:50:43;;;;;;;9.37;7.33;;;;;;;;;;4957916;29;20532;-86
2024/01/03 11:53:25;;;;;;;5.33;4.83;;;;;;;;;;4960249;29;20513;-86
2024/01/03 11:55:58;;;;;;;10.27;4.97;;;;;;;;;;4957970;29;20298;-86
2024/01/03 11:58:28;;;;;;;9.00;6.43;;;;;;;;;;4957810;29;20205;-86
2024/01/03 12:01:15;;;;;;;8.77;5.93;;;;;;;;;;4958462;29;20194;-86
2024/01/03 12:03:51;;;;;;;14.20;6.73;;;;;;;;;;4959072;29;20242;-86
2024/01/03 12:06:23;;;;;;;14.93;5.80;;;;;;;;;;4958817;29;20191;-85
2024/01/03 12:19:26;;;;;;;6.43;5.83;;;;;;;;;;5025952;23;21075;-86
2024/01/03 12:21:58;;;;;;;7.47;5.23;;;;;;;;;;4998150;28;20190;-85
2024/01/03 12:27:01;;;;;;;8.03;5.50;;;;;;;;;;5072982;23;20324;-85
2024/01/03 12:29:34;;;;;;;6.50;4.60;;;;;;;;;;4994978;28;20197;-85
2024/01/03 12:34:43;;;;;;;5.87;5.10;;;;;;;;;;5994638;23;20178;-86
2024/01/03 12:37:18;;;;;;;7.87;4.83;;;;;;;;;;4994139;28;20238;-86
2024/01/03 12:39:51;;;;;;;5.30;4.77;;;;;;;;;;4990997;28;20202;-86
2024/01/03 12:44:59;;;;;;;5.07;4.17;;;;;;;;;;5172290;23;20261;-85
2024/01/03 12:47:29;;;;;;;1.33;1.23;;;;;;;;;;4979293;28;20277;-85
2024/01/03 12:52:40;;;;;;;0.70;0.70;;;;;;;;;;5944556;23;20242;-87
2024/01/03 12:55:08;;;;;;;3.00;1.67;;;;;;;;;;4941377;29;20237;-85
2024/01/03 12:57:40;;;;;;;14.10;6.77;;;;;;;;;;4940819;29;20607;-87
2024/01/03 13:00:10;;;;;;;3.17;2.87;;;;;;;;;;4946648;29;20307;-86
2024/01/03 13:02:42;;;;;;;2.63;0.90;;;;;;;;;;4935571;29;20288;-86
2024/01/03 13:05:14;;;;;;;1.00;0.90;;;;;;;;;;4927146;29;20631;-86
2024/01/03 13:07:50;;;;;;;2.90;2.70;;;;;;;;;;4955143;29;20235;-83
2024/01/03 13:10:20;;;;;;;5.40;3.30;;;;;;;;;;4933084;29;20219;-85
2024/01/03 13:12:50;;;;;;;7.53;4.73;;;;;;;;;;4932722;29;20530;-87
2024/01/03 13:15:21;;;;;;;3.20;2.90;;;;;;;;;;4935286;29;20318;-86
2024/01/03 13:17:53;;;;;;;6.87;5.10;;;;;;;;;;4937870;29;20232;-88
2024/01/03 13:20:24;;;;;;;7.70;6.00;;;;;;;;;;4939188;29;20237;-86
2024/01/03 13:22:54;;;;;;;7.03;5.80;;;;;;;;;;4956672;29;20246;-87
2024/01/03 13:25:22;;;;;;;9.63;6.33;;;;;;;;;;4946018;29;20227;-86
2024/01/03 13:27:49;;;;;;;6.47;4.40;;;;;;;;;;4938002;29;20314;-87
2024/01/03 13:30:18;;;;;;;8.90;5.60;;;;;;;;;;4941113;29;20308;-86
2024/01/03 13:32:49;;;;;;;6.53;4.87;;;;;;;;;;4948380;29;20297;-85
2024/01/03 13:35:17;;;;;;;9.53;3.83;;;;;;;;;;4953278;29;20583;-86
2024/01/03 13:37:49;;;;;;;2.00;1.33;;;;;;;;;;4953346;29;20240;-86
2024/01/03 13:40:19;;;;;;;1.73;1.23;;;;;;;;;;4951293;29;20704;-85
2024/01/03 13:42:47;;;;;;;1.00;1.00;;;;;;;;;;4947365;29;20631;-87
2024/01/03 13:45:18;;;;;;;1.10;0.77;;;;;;;;;;4930928;29;20779;-86
2024/01/03 13:47:51;;;;;;;5.53;1.00;;;;;;;;;;4939188;29;21112;-86
2024/01/03 13:50:20;;;;;;;0.70;0.70;;;;;;;;;;4916572;29;20430;-87
2024/01/03 13:52:55;;;;;;;0.97;0.97;;;;;;;;;;4940396;29;20258;-86
2024/01/03 13:55:25;;;;;;;0.60;0.60;;;;;;;;;;4923480;29;20245;-86
2024/01/03 13:57:55;;;;;;;2.00;1.43;;;;;;;;;;4942965;29;20217;-86
2024/01/03 14:00:26;;;;;;;1.13;0.40;;;;;;;;;;4945155;29;20258;-85
2024/01/03 14:02:59;;;;;;;0.90;0.90;;;;;;;;;;4952905;29;20239;-86
2024/01/03 14:05:29;;;;;;;0.70;0.70;;;;;;;;;;4952771;29;20660;-86
2024/01/03 14:07:58;;;;;;;0.93;0.50;;;;;;;;;;4954756;29;20225;-85
2024/01/03 14:13:34;;;;;;;0.87;0.87;;;;;;;;;;4954882;23;20231;-85
2024/01/03 14:16:04;;;;;;;1.07;0.53;;;;;;;;;;4952993;29;20218;-86
2024/01/03 14:18:39;;;;;;;0.80;0.80;;;;;;;;;;4953098;29;20238;-86
2024/01/03 14:24:49;;;;;;;1.27;0.40;;;;;;;;;;4962008;28;20286;-86
2024/01/03 14:27:17;;;;;;;2.53;0.90;;;;;;;;;;4953817;29;20286;-85
2024/01/03 14:33:02;;;;;;;0.83;0.77;;;;;;;;;;4953041;28;20227;-86
2024/01/03 14:35:34;;;;;;;0.57;0.57;;;;;;;;;;4944917;29;20236;-86
2024/01/03 14:38:02;;;;;;;0.63;0.63;;;;;;;;;;4954803;29;20208;-84
2024/01/03 14:40:32;;;;;;;0.47;0.47;;;;;;;;;;4951208;29;20206;-86
2024/01/03 14:43:10;;;;;;;0.40;0.40;;;;;;;;;;4945209;29;20215;-87
2024/01/03 14:45:38;;;;;;;0.80;0.80;;;;;;;;;;4931518;29;20200;-85
2024/01/03 14:48:16;;;;;;;2.33;0.40;;;;;;;;;;4935290;29;20591;-85
2024/01/03 14:50:48;;;;;;;1.60;0.70;;;;;;;;;;4931554;29;20193;-85
2024/01/03 14:53:20;;;;;;;0.70;0.70;;;;;;;;;;4931238;29;20207;-85
2024/01/03 14:55:53;;;;;;;1.00;0.90;;;;;;;;;;4946700;29;20212;-86
2024/01/03 14:58:30;;;;;;;0.70;0.70;;;;;;;;;;4936648;29;20676;-85
2024/01/03 15:01:00;;;;;;;0.77;0.77;;;;;;;;;;4935803;29;20253;-86
2024/01/03 15:03:40;;;;;;;0.83;0.83;;;;;;;;;;4935157;29;20691;-86
2024/01/03 15:06:08;;;;;;;1.33;0.80;;;;;;;;;;4935927;29;20263;-87
2024/01/03 15:08:38;;;;;;;0.80;0.80;;;;;;;;;;4935895;29;20207;-86
2024/01/03 15:11:05;;;;;;;0.60;0.60;;;;;;;;;;4934836;29;20769;-85
2024/01/03 15:13:34;;;;;;;1.30;0.90;;;;;;;;;;4935218;29;20459;-86
2024/01/03 15:16:06;;;;;;;2.10;0.93;;;;;;;;;;4937063;29;20331;-85
2024/01/03 15:18:36;;;;;;;0.90;0.70;;;;;;;;;;4935889;29;20262;-86
2024/01/03 15:21:05;;;;;;;0.60;0.60;;;;;;;;;;4935663;29;20206;-85
2024/01/03 15:23:35;;;;;;;1.80;1.70;;;;;;;;;;4935917;29;20212;-85
2024/01/03 15:26:04;;;;;;;2.23;1.50;;;;;;;;;;4936996;29;20264;-85
2024/01/03 15:28:32;;;;;;;1.47;1.37;;;;;;;;;;4935528;29;20213;-87
2024/01/03 15:31:04;;;;;;;1.27;1.27;;;;;;;;;;4937465;29;20236;-86
2024/01/03 15:33:33;;;;;;;1.33;1.20;;;;;;;;;;4929934;29;20323;-88
2024/01/03 15:36:04;;;;;;;0.90;0.90;;;;;;;;;;4920803;29;20257;-87
2024/01/03 15:38:34;;;;;;;0.90;0.50;;;;;;;;;;4914454;29;20563;-86
2024/01/03 15:41:08;;;;;;;0.90;0.90;;;;;;;;;;4920424;29;20613;-86
2024/01/03 15:43:38;;;;;;;1.07;1.00;;;;;;;;;;4928821;29;20239;-86
2024/01/03 15:46:08;;;;;;;2.00;1.50;;;;;;;;;;4941880;29;20223;-87
2024/01/03 15:48:38;;;;;;;1.40;1.30;;;;;;;;;;4942191;29;20229;-87
2024/01/03 15:51:09;;;;;;;1.57;0.80;;;;;;;;;;4942937;29;20220;-86
2024/01/03 15:53:41;;;;;;;0.80;0.70;;;;;;;;;;4937008;29;20335;-85
2024/01/03 15:56:12;;;;;;;0.70;0.70;;;;;;;;;;4942372;29;20298;-84
2024/01/03 15:58:50;;;;;;;1.20;1.10;;;;;;;;;;4941642;29;20227;-87
2024/01/03 16:01:20;;;;;;;1.17;1.00;;;;;;;;;;4950121;29;20249;-86
2024/01/03 16:03:51;;;;;;;1.10;1.10;;;;;;;;;;4946600;29;20227;-84
2024/01/03 16:06:25;;;;;;;1.70;1.30;;;;;;;;;;4945808;29;20477;-85
2024/01/03 16:08:58;;;;;;;0.83;0.83;;;;;;;;;;4939773;29;20742;-86